Time;durP1;ratioP1;P1;durP2;ratioP2;P2;SDS_P1;SDS_P2;PMS_P1;PMS_P2;Temp;Humidity;BMP_temperature;BMP_pressure;BME280_temperature;BME280_humidity;BME280_pressure;Samples;Min_cycle;Max_cycle;Signal;HPM_P1;HPM_P2
2024/02/05 00:00:12;;;;;;;0.40;0.40;;;5.90;99.90;;;;;;4956548;28;20213;-77
2024/02/05 00:02:40;;;;;;;0.40;0.40;;;5.90;99.90;;;;;;4959619;29;20618;-78
2024/02/05 00:05:10;;;;;;;0.40;0.40;;;5.90;99.90;;;;;;4962670;29;20273;-78
2024/02/05 00:07:38;;;;;;;0.63;0.63;;;5.80;99.90;;;;;;4971616;28;20221;-77
2024/02/05 00:10:07;;;;;;;0.65;0.65;;;5.80;99.90;;;;;;4979639;28;20205;-79
2024/02/05 00:12:35;;;;;;;0.40;0.40;;;5.80;99.90;;;;;;4963054;28;20217;-80
2024/02/05 00:15:04;;;;;;;0.73;0.73;;;5.80;99.90;;;;;;4968792;28;20237;-79
2024/02/05 00:17:31;;;;;;;0.55;0.55;;;5.90;99.90;;;;;;4966720;28;20218;-78
2024/02/05 00:19:58;;;;;;;2.97;2.20;;;5.90;99.90;;;;;;4946468;28;20227;-79
2024/02/05 00:22:26;;;;;;;0.50;0.50;;;5.90;99.90;;;;;;4934679;28;20307;-80
2024/02/05 00:24:53;;;;;;;0.50;0.50;;;5.80;99.90;;;;;;4948600;28;20750;-79
2024/02/05 00:27:20;;;;;;;1.50;1.40;;;5.90;99.90;;;;;;4948784;28;20270;-77
2024/02/05 00:29:48;;;;;;;0.73;0.73;;;5.80;99.90;;;;;;4964580;28;20275;-78
2024/02/05 00:32:15;;;;;;;0.45;0.45;;;5.90;99.90;;;;;;4954640;28;20210;-79
2024/02/05 00:34:42;;;;;;;0.43;0.43;;;5.90;99.90;;;;;;4944072;28;20257;-78
2024/02/05 00:37:10;;;;;;;0.75;0.75;;;5.90;99.90;;;;;;4931092;29;20213;-80
2024/02/05 00:39:37;;;;;;;0.35;0.35;;;5.90;99.90;;;;;;4954240;28;20398;-78
2024/02/05 00:42:04;;;;;;;0.40;0.40;;;5.90;99.90;;;;;;4962702;28;20208;-79
2024/02/05 00:44:31;;;;;;;0.50;0.50;;;5.90;99.90;;;;;;4946068;28;20281;-78
2024/02/05 00:46:58;;;;;;;0.40;0.40;;;5.90;99.90;;;;;;4957545;28;20526;-79
2024/02/05 00:49:25;;;;;;;1.63;1.40;;;5.90;99.90;;;;;;4958311;28;20226;-79
2024/02/05 00:51:52;;;;;;;0.40;0.40;;;5.90;99.90;;;;;;4949643;28;20330;-79
2024/02/05 00:54:19;;;;;;;0.38;0.38;;;5.90;99.90;;;;;;4946975;28;20242;-80
2024/02/05 00:56:46;;;;;;;0.43;0.43;;;5.90;99.90;;;;;;4949034;28;20511;-79
2024/02/05 00:59:13;;;;;;;0.40;0.40;;;5.90;99.90;;;;;;4932053;29;20211;-81
2024/02/05 01:01:43;;;;;;;0.55;0.55;;;5.90;99.90;;;;;;4952151;28;20276;-79
2024/02/05 01:04:11;;;;;;;0.52;0.52;;;6.00;99.90;;;;;;4953360;28;20267;-78
2024/02/05 01:06:39;;;;;;;0.40;0.40;;;6.00;99.90;;;;;;4953204;28;20439;-79
2024/02/05 01:09:09;;;;;;;0.40;0.40;;;6.00;99.90;;;;;;4930229;29;20217;-79
2024/02/05 01:11:37;;;;;;;0.40;0.40;;;6.00;99.90;;;;;;4939125;29;20221;-79
2024/02/05 01:14:04;;;;;;;0.40;0.40;;;6.00;99.90;;;;;;4952847;28;20231;-79
2024/02/05 01:16:31;;;;;;;0.40;0.40;;;6.00;99.90;;;;;;4955312;28;20281;-77
2024/02/05 01:18:58;;;;;;;0.50;0.50;;;5.90;99.90;;;;;;4950764;28;20501;-79
2024/02/05 01:21:25;;;;;;;1.05;0.95;;;6.00;99.90;;;;;;4951072;28;20511;-77
2024/02/05 01:23:52;;;;;;;1.58;1.48;;;6.00;99.90;;;;;;4948660;28;20411;-78
2024/02/05 01:26:20;;;;;;;0.40;0.40;;;6.00;99.90;;;;;;4942246;29;20214;-77
2024/02/05 01:28:48;;;;;;;1.10;1.10;;;6.00;99.90;;;;;;4948893;28;20284;-78
2024/02/05 01:31:15;;;;;;;0.40;0.40;;;5.90;99.90;;;;;;4959558;28;20518;-78
2024/02/05 01:33:42;;;;;;;0.50;0.50;;;6.00;99.90;;;;;;4954898;28;20229;-79
2024/02/05 01:36:10;;;;;;;1.38;1.30;;;5.90;99.90;;;;;;4952834;29;20403;-78
2024/02/05 01:38:36;;;;;;;1.42;1.13;;;6.00;99.90;;;;;;4953929;28;20211;-82
2024/02/05 01:41:04;;;;;;;0.40;0.40;;;5.90;99.90;;;;;;4954095;28;20210;-78
2024/02/05 01:43:31;;;;;;;1.02;0.90;;;5.90;99.90;;;;;;4943935;28;20231;-78
2024/02/05 01:45:59;;;;;;;0.82;0.82;;;6.00;99.90;;;;;;4954659;28;20217;-78
2024/02/05 01:48:31;;;;;;;0.40;0.40;;;6.00;99.90;;;;;;4949556;28;20415;-78
2024/02/05 01:50:58;;;;;;;0.40;0.40;;;5.90;99.90;;;;;;4954045;28;20210;-77
2024/02/05 01:53:26;;;;;;;0.40;0.40;;;5.90;99.90;;;;;;4942850;28;20251;-79
2024/02/05 01:55:54;;;;;;;0.40;0.40;;;6.00;99.90;;;;;;4933516;29;20274;-77
2024/02/05 01:58:21;;;;;;;0.40;0.40;;;6.00;99.90;;;;;;4944935;29;20214;-77
2024/02/05 02:00:49;;;;;;;0.57;0.57;;;6.00;99.90;;;;;;4949787;28;20278;-77
2024/02/05 02:03:16;;;;;;;1.02;1.02;;;6.00;99.90;;;;;;4935946;29;20223;-77
2024/02/05 02:05:44;;;;;;;0.40;0.40;;;6.00;99.90;;;;;;4945855;28;20566;-79
2024/02/05 02:08:14;;;;;;;0.40;0.40;;;6.00;99.90;;;;;;4941082;28;20214;-77
2024/02/05 02:10:43;;;;;;;0.40;0.40;;;6.00;99.90;;;;;;4951733;28;20206;-78
2024/02/05 02:13:10;;;;;;;0.40;0.40;;;6.10;99.90;;;;;;4954517;29;20221;-79
2024/02/05 02:15:37;;;;;;;0.40;0.40;;;6.20;99.90;;;;;;4957737;28;20218;-77
2024/02/05 02:18:09;;;;;;;0.40;0.40;;;6.20;99.90;;;;;;4962358;28;20207;-78
2024/02/05 02:20:44;;;;;;;0.40;0.40;;;6.20;99.90;;;;;;4954753;28;20565;-79
2024/02/05 02:23:29;;;;;;;0.40;0.40;;;6.30;99.90;;;;;;4956760;28;20238;-80
2024/02/05 02:25:58;;;;;;;0.40;0.40;;;6.30;99.90;;;;;;4944926;28;20419;-78
2024/02/05 02:28:25;;;;;;;0.40;0.40;;;6.30;99.90;;;;;;4942447;29;20329;-78
2024/02/05 02:30:54;;;;;;;0.57;0.57;;;6.40;99.90;;;;;;4949147;28;20527;-80
2024/02/05 02:33:23;;;;;;;0.68;0.68;;;6.50;99.90;;;;;;4951789;28;20214;-80
2024/02/05 02:35:59;;;;;;;0.30;0.30;;;6.60;99.90;;;;;;4955987;28;20292;-77
2024/02/05 02:38:32;;;;;;;0.30;0.30;;;6.80;99.90;;;;;;4958037;29;20219;-79
2024/02/05 02:41:03;;;;;;;0.40;0.40;;;7.00;99.90;;;;;;4951613;28;20196;-80
2024/02/05 02:43:47;;;;;;;0.40;0.40;;;7.10;99.90;;;;;;4948657;28;20298;-78
2024/02/05 02:46:14;;;;;;;0.40;0.40;;;7.30;99.90;;;;;;4957270;28;20245;-79
2024/02/05 02:48:41;;;;;;;0.30;0.30;;;7.50;99.90;;;;;;4952490;28;20227;-79
2024/02/05 02:51:08;;;;;;;0.30;0.30;;;7.70;99.90;;;;;;4954723;28;20207;-78
2024/02/05 02:53:35;;;;;;;0.40;0.40;;;7.80;99.90;;;;;;4956946;28;20219;-77
2024/02/05 02:56:03;;;;;;;0.40;0.40;;;7.90;99.90;;;;;;4953935;28;20262;-79
2024/02/05 02:58:30;;;;;;;0.35;0.35;;;8.00;99.90;;;;;;4952596;28;20282;-78
2024/02/05 03:00:57;;;;;;;1.10;0.88;;;8.00;99.90;;;;;;4960351;28;20211;-80
2024/02/05 03:03:24;;;;;;;0.30;0.30;;;8.10;99.90;;;;;;4948955;28;20235;-79
2024/02/05 03:05:51;;;;;;;0.40;0.40;;;8.30;99.90;;;;;;4951919;28;20504;-79
2024/02/05 03:08:18;;;;;;;0.40;0.40;;;8.30;99.90;;;;;;4957405;29;20208;-79
2024/02/05 03:10:45;;;;;;;0.30;0.30;;;8.50;99.90;;;;;;4934019;29;20336;-78
2024/02/05 03:13:12;;;;;;;0.32;0.32;;;8.50;99.90;;;;;;4951275;28;20275;-79
2024/02/05 03:15:44;;;;;;;0.30;0.30;;;8.50;99.90;;;;;;4949093;28;20211;-80
2024/02/05 03:18:11;;;;;;;0.30;0.30;;;8.60;99.90;;;;;;4960822;28;20234;-78
2024/02/05 03:20:39;;;;;;;0.30;0.30;;;8.60;99.90;;;;;;4951231;28;20207;-78
2024/02/05 03:23:11;;;;;;;0.30;0.30;;;8.60;99.90;;;;;;4934741;29;20263;-80
2024/02/05 03:25:39;;;;;;;0.30;0.30;;;8.60;99.90;;;;;;4933459;29;20282;-79
2024/02/05 03:28:10;;;;;;;0.30;0.30;;;8.70;99.90;;;;;;4950015;28;20199;-77
2024/02/05 03:30:37;;;;;;;0.30;0.30;;;8.60;99.90;;;;;;4951005;28;20311;-79
2024/02/05 03:33:05;;;;;;;0.30;0.30;;;8.70;99.90;;;;;;4959646;28;20204;-79
2024/02/05 03:35:32;;;;;;;0.40;0.40;;;8.80;99.90;;;;;;4948492;28;20235;-78
2024/02/05 03:37:59;;;;;;;0.30;0.30;;;8.80;99.90;;;;;;4960805;28;20207;-78
2024/02/05 03:40:26;;;;;;;0.30;0.30;;;8.60;99.90;;;;;;4958565;29;20279;-77
2024/02/05 03:42:54;;;;;;;0.30;0.30;;;8.80;99.90;;;;;;4953160;28;20294;-77
2024/02/05 03:45:22;;;;;;;0.30;0.30;;;8.90;99.90;;;;;;4947356;28;20677;-78
2024/02/05 03:47:48;;;;;;;0.40;0.40;;;9.00;99.90;;;;;;4956484;28;20649;-79
2024/02/05 03:50:17;;;;;;;0.30;0.30;;;8.90;99.90;;;;;;4953452;28;20208;-79
2024/02/05 03:52:45;;;;;;;0.30;0.30;;;9.00;99.90;;;;;;4944341;28;20321;-77
2024/02/05 03:55:13;;;;;;;0.30;0.30;;;8.90;99.90;;;;;;4969596;28;20218;-78
2024/02/05 03:57:43;;;;;;;0.30;0.30;;;9.00;99.90;;;;;;4969309;28;20261;-81
2024/02/05 04:00:12;;;;;;;0.35;0.35;;;9.00;99.90;;;;;;4964115;29;20266;-80
2024/02/05 04:02:39;;;;;;;0.40;0.40;;;8.90;99.90;;;;;;4948153;29;20251;-79
2024/02/05 04:05:09;;;;;;;0.30;0.30;;;8.90;99.90;;;;;;4946914;28;20514;-80
2024/02/05 04:07:37;;;;;;;0.40;0.40;;;9.00;99.90;;;;;;4950118;29;20218;-78
2024/02/05 04:10:04;;;;;;;0.40;0.40;;;9.00;99.90;;;;;;4950800;28;20207;-79
2024/02/05 04:12:31;;;;;;;0.30;0.30;;;9.00;99.90;;;;;;4946170;29;20413;-77
2024/02/05 04:14:58;;;;;;;0.40;0.40;;;9.10;99.90;;;;;;4943660;28;20729;-79
2024/02/05 04:17:25;;;;;;;0.40;0.40;;;9.10;99.90;;;;;;4954203;29;20200;-79
2024/02/05 04:19:52;;;;;;;0.32;0.32;;;9.10;99.90;;;;;;4952404;28;20224;-81
2024/02/05 04:22:19;;;;;;;0.40;0.40;;;9.10;99.90;;;;;;4958247;28;20207;-79
2024/02/05 04:24:47;;;;;;;0.30;0.30;;;9.10;99.90;;;;;;4961834;28;20235;-79
2024/02/05 04:27:14;;;;;;;0.30;0.30;;;9.10;99.90;;;;;;4951706;28;20207;-78
2024/02/05 04:29:42;;;;;;;0.40;0.40;;;9.10;99.90;;;;;;4943155;29;20203;-84
2024/02/05 04:32:10;;;;;;;0.40;0.40;;;9.20;99.90;;;;;;4935808;28;20449;-78
2024/02/05 04:34:37;;;;;;;0.40;0.40;;;9.20;99.90;;;;;;4951982;28;20218;-78
2024/02/05 04:37:04;;;;;;;0.40;0.40;;;9.20;99.90;;;;;;4951638;28;20199;-82
2024/02/05 04:39:31;;;;;;;0.30;0.30;;;9.20;99.90;;;;;;4946170;28;20223;-78
2024/02/05 04:41:58;;;;;;;0.30;0.30;;;9.20;99.90;;;;;;4959642;29;20206;-79
2024/02/05 04:44:25;;;;;;;0.30;0.30;;;9.20;99.90;;;;;;4949723;28;20318;-79
2024/02/05 04:46:52;;;;;;;0.30;0.30;;;9.20;99.90;;;;;;4934884;28;20282;-83
2024/02/05 04:49:19;;;;;;;0.30;0.30;;;9.20;99.90;;;;;;4949050;28;20238;-78
2024/02/05 04:51:49;;;;;;;0.30;0.30;;;9.30;99.90;;;;;;4955515;28;20203;-78
2024/02/05 04:54:17;;;;;;;0.30;0.30;;;9.30;99.90;;;;;;4934705;29;20204;-79
2024/02/05 04:56:44;;;;;;;0.30;0.30;;;9.20;99.90;;;;;;4954325;28;20259;-80
2024/02/05 04:59:11;;;;;;;0.30;0.30;;;9.30;99.90;;;;;;4966014;28;20266;-78
2024/02/05 05:01:38;;;;;;;0.30;0.30;;;9.30;99.90;;;;;;4960067;28;20211;-77
2024/02/05 05:04:05;;;;;;;0.30;0.30;;;9.20;99.90;;;;;;4960913;28;20444;-77
2024/02/05 05:06:33;;;;;;;0.30;0.30;;;9.30;99.90;;;;;;4964063;28;20242;-80
2024/02/05 05:08:59;;;;;;;0.30;0.30;;;9.20;99.90;;;;;;4960808;28;20207;-81
2024/02/05 05:11:27;;;;;;;0.30;0.30;;;9.30;99.90;;;;;;4935958;29;20545;-76
2024/02/05 05:13:54;;;;;;;0.35;0.35;;;9.20;99.90;;;;;;4950424;28;20241;-83
2024/02/05 05:16:21;;;;;;;0.40;0.40;;;9.20;99.90;;;;;;4955331;28;20303;-78
2024/02/05 05:18:49;;;;;;;0.40;0.40;;;9.20;99.90;;;;;;4944756;28;20204;-81
2024/02/05 05:21:16;;;;;;;0.30;0.30;;;9.20;99.90;;;;;;4948980;28;20304;-82
2024/02/05 05:23:43;;;;;;;0.40;0.40;;;9.30;99.90;;;;;;4950709;28;20270;-80
2024/02/05 05:26:10;;;;;;;0.40;0.40;;;9.20;99.90;;;;;;4951591;28;20266;-78
2024/02/05 05:28:43;;;;;;;0.65;0.65;;;9.20;99.90;;;;;;4960549;28;20242;-79
2024/02/05 05:31:12;;;;;;;0.40;0.40;;;9.30;99.90;;;;;;4958435;28;20249;-80
2024/02/05 05:33:39;;;;;;;0.35;0.35;;;9.30;99.90;;;;;;4929949;29;20218;-82
2024/02/05 05:36:06;;;;;;;0.40;0.40;;;9.30;99.90;;;;;;4957690;28;20211;-82
2024/02/05 05:38:34;;;;;;;0.32;0.32;;;9.30;99.90;;;;;;4952520;28;20222;-79
2024/02/05 05:41:01;;;;;;;0.30;0.30;;;9.20;99.90;;;;;;4958702;28;20270;-78
2024/02/05 05:43:28;;;;;;;0.40;0.40;;;9.20;99.90;;;;;;4947071;29;20216;-75
2024/02/05 05:45:55;;;;;;;0.40;0.40;;;9.20;99.90;;;;;;4955062;28;20200;-78
2024/02/05 05:48:22;;;;;;;0.52;0.52;;;9.20;99.90;;;;;;4961757;28;20208;-78
2024/02/05 05:50:50;;;;;;;0.52;0.52;;;9.20;99.90;;;;;;4934645;29;20251;-77
2024/02/05 05:53:17;;;;;;;0.52;0.52;;;9.20;99.90;;;;;;4937256;28;20237;-80
2024/02/05 05:55:48;;;;;;;0.40;0.40;;;9.20;99.90;;;;;;4937304;29;20318;-78
2024/02/05 05:58:15;;;;;;;0.40;0.40;;;9.20;99.90;;;;;;4953607;28;20394;-80
2024/02/05 06:00:42;;;;;;;0.40;0.40;;;9.40;99.90;;;;;;4964609;28;20390;-81
2024/02/05 06:03:11;;;;;;;0.40;0.40;;;9.20;99.90;;;;;;4960488;28;20199;-80
2024/02/05 06:05:38;;;;;;;0.40;0.40;;;9.20;99.90;;;;;;4956386;28;20266;-78
2024/02/05 06:08:05;;;;;;;0.40;0.40;;;9.20;99.90;;;;;;4956703;28;20230;-79
2024/02/05 06:10:33;;;;;;;0.40;0.40;;;9.20;99.90;;;;;;4961928;28;20215;-78
2024/02/05 06:13:03;;;;;;;0.40;0.40;;;9.20;99.90;;;;;;4938534;28;20491;-79
2024/02/05 06:15:30;;;;;;;0.40;0.40;;;9.20;99.90;;;;;;4955654;28;20503;-78
2024/02/05 06:17:59;;;;;;;0.50;0.50;;;9.20;99.90;;;;;;4955976;28;20583;-79
2024/02/05 06:20:27;;;;;;;0.40;0.40;;;9.20;99.90;;;;;;4950610;28;20219;-77
2024/02/05 06:22:54;;;;;;;0.40;0.40;;;9.20;99.90;;;;;;4948128;29;20204;-78
2024/02/05 06:25:22;;;;;;;0.40;0.40;;;9.20;99.90;;;;;;4960009;28;20223;-78
2024/02/05 06:27:51;;;;;;;0.40;0.40;;;9.20;99.90;;;;;;4944409;29;20203;-78
2024/02/05 06:30:19;;;;;;;0.40;0.40;;;9.20;99.90;;;;;;4949817;28;20282;-79
2024/02/05 06:32:46;;;;;;;0.40;0.40;;;9.30;99.90;;;;;;4950787;28;20206;-79
2024/02/05 06:35:13;;;;;;;0.40;0.40;;;9.30;99.90;;;;;;4946324;29;20219;-78
2024/02/05 06:37:40;;;;;;;0.40;0.40;;;9.20;99.90;;;;;;4960071;28;20220;-78
2024/02/05 06:40:09;;;;;;;3.33;1.58;;;9.20;99.90;;;;;;4962387;28;20282;-79
2024/02/05 06:42:36;;;;;;;0.40;0.40;;;9.30;99.90;;;;;;4955504;28;20211;-76
2024/02/05 06:45:03;;;;;;;0.40;0.40;;;9.40;99.90;;;;;;4947282;28;20299;-82
2024/02/05 06:47:31;;;;;;;0.40;0.40;;;9.40;99.90;;;;;;4959476;28;20220;-78
2024/02/05 06:49:58;;;;;;;0.63;0.63;;;9.40;99.90;;;;;;4949455;28;20413;-79
2024/02/05 06:52:25;;;;;;;0.40;0.40;;;9.40;99.90;;;;;;4952134;29;20219;-78
2024/02/05 06:54:53;;;;;;;0.40;0.40;;;9.50;99.90;;;;;;4960961;28;20215;-78
2024/02/05 06:57:20;;;;;;;0.40;0.40;;;9.40;99.90;;;;;;4960201;28;20286;-80
2024/02/05 06:59:47;;;;;;;0.40;0.40;;;9.40;99.90;;;;;;4951841;29;20212;-80
2024/02/05 07:02:14;;;;;;;1.33;1.23;;;9.40;99.90;;;;;;4929456;28;20275;-81
2024/02/05 07:04:47;;;;;;;0.40;0.40;;;9.40;99.90;;;;;;4962992;28;20219;-80
2024/02/05 07:07:14;;;;;;;0.40;0.40;;;9.30;99.90;;;;;;4951066;28;20203;-77
2024/02/05 07:09:41;;;;;;;0.40;0.40;;;9.30;99.90;;;;;;4957280;28;20238;-80
2024/02/05 07:12:08;;;;;;;0.40;0.40;;;9.30;99.90;;;;;;4947766;28;20207;-79
2024/02/05 07:14:35;;;;;;;0.40;0.40;;;9.40;99.90;;;;;;4962817;28;20290;-79
2024/02/05 07:17:03;;;;;;;1.40;1.40;;;9.40;99.90;;;;;;4949500;28;20234;-81
2024/02/05 07:19:30;;;;;;;0.52;0.52;;;9.40;99.90;;;;;;4955410;28;20211;-80
2024/02/05 07:21:57;;;;;;;0.70;0.70;;;9.40;99.90;;;;;;4934398;29;20208;-81
2024/02/05 07:24:24;;;;;;;0.50;0.50;;;9.30;99.90;;;;;;4960737;28;20558;-80
2024/02/05 07:26:51;;;;;;;0.40;0.40;;;9.50;99.90;;;;;;4958337;28;20270;-77
2024/02/05 07:29:18;;;;;;;0.40;0.40;;;9.50;99.90;;;;;;4955581;28;20681;-79
2024/02/05 07:31:45;;;;;;;0.40;0.40;;;9.50;99.90;;;;;;4958668;28;20233;-79
2024/02/05 07:34:12;;;;;;;0.52;0.52;;;9.60;99.90;;;;;;4960112;28;20223;-81
2024/02/05 07:36:39;;;;;;;0.60;0.60;;;9.60;99.90;;;;;;4951091;29;20484;-79
2024/02/05 07:39:08;;;;;;;0.40;0.40;;;9.60;99.90;;;;;;4953149;28;20275;-81
2024/02/05 07:41:35;;;;;;;0.40;0.40;;;9.70;99.90;;;;;;4960148;28;20249;-76
2024/02/05 07:44:02;;;;;;;0.40;0.40;;;9.70;99.90;;;;;;4962683;28;20250;-76
2024/02/05 07:46:29;;;;;;;0.50;0.50;;;9.70;99.90;;;;;;4960128;28;20243;-77
2024/02/05 07:48:57;;;;;;;0.60;0.60;;;9.70;99.90;;;;;;4950469;29;20211;-81
2024/02/05 07:51:25;;;;;;;0.40;0.40;;;9.80;99.90;;;;;;4961059;28;20507;-77
2024/02/05 07:53:52;;;;;;;0.40;0.40;;;9.80;99.90;;;;;;4956228;28;20489;-78
2024/02/05 07:56:19;;;;;;;0.40;0.40;;;9.90;99.90;;;;;;4954494;28;20271;-79
2024/02/05 07:58:46;;;;;;;0.40;0.40;;;9.90;99.90;;;;;;4957190;28;20318;-78
2024/02/05 08:01:13;;;;;;;0.40;0.40;;;10.00;99.90;;;;;;4956822;28;20274;-80
2024/02/05 08:03:41;;;;;;;0.40;0.40;;;9.90;99.90;;;;;;4949948;28;20483;-81
2024/02/05 08:06:17;;;;;;;0.40;0.40;;;9.90;99.90;;;;;;4959117;28;20226;-82
2024/02/05 08:08:44;;;;;;;0.40;0.40;;;10.00;99.90;;;;;;4963743;28;20213;-80
2024/02/05 08:11:12;;;;;;;0.40;0.40;;;10.10;99.90;;;;;;4951037;28;20207;-79
2024/02/05 08:13:39;;;;;;;0.40;0.40;;;10.10;99.90;;;;;;4954014;28;20207;-78
2024/02/05 08:16:07;;;;;;;0.40;0.40;;;10.00;99.90;;;;;;4954672;28;20287;-85
2024/02/05 08:18:34;;;;;;;0.40;0.40;;;9.90;99.90;;;;;;4951566;28;20206;-78
2024/02/05 08:21:01;;;;;;;0.32;0.32;;;9.80;99.90;;;;;;4956014;28;20215;-78
2024/02/05 08:23:29;;;;;;;0.40;0.40;;;10.00;99.90;;;;;;4947975;28;20215;-79
2024/02/05 08:25:56;;;;;;;0.40;0.40;;;9.80;99.90;;;;;;4955963;28;20291;-80
2024/02/05 08:28:23;;;;;;;0.40;0.40;;;9.80;99.90;;;;;;4958167;28;20207;-78
2024/02/05 08:30:50;;;;;;;0.38;0.38;;;9.70;99.90;;;;;;4950319;28;20229;-77
2024/02/05 08:33:17;;;;;;;0.40;0.40;;;9.70;99.90;;;;;;4953382;28;20208;-80
2024/02/05 08:35:44;;;;;;;0.40;0.40;;;9.80;99.90;;;;;;4944364;29;20210;-83
2024/02/05 08:38:11;;;;;;;0.40;0.40;;;9.70;99.90;;;;;;4957040;29;20262;-82
2024/02/05 08:40:38;;;;;;;0.40;0.40;;;9.70;99.90;;;;;;4955284;28;20227;-79
2024/02/05 08:43:05;;;;;;;0.40;0.40;;;9.80;99.90;;;;;;4951319;29;20302;-79
2024/02/05 08:45:33;;;;;;;0.40;0.40;;;9.80;99.90;;;;;;4950531;28;20258;-79
2024/02/05 08:48:00;;;;;;;0.30;0.30;;;9.80;99.90;;;;;;4947380;29;20212;-79
2024/02/05 08:50:33;;;;;;;0.30;0.30;;;9.90;99.90;;;;;;4944136;28;20211;-77
2024/02/05 08:53:00;;;;;;;0.30;0.30;;;9.80;99.90;;;;;;4963212;28;20227;-80
2024/02/05 08:55:27;;;;;;;0.40;0.40;;;9.80;99.90;;;;;;4953296;28;20207;-78
2024/02/05 08:57:55;;;;;;;0.40;0.40;;;9.80;99.90;;;;;;4957583;29;20204;-78
2024/02/05 09:00:22;;;;;;;0.30;0.30;;;9.80;99.90;;;;;;4949748;28;20287;-80
2024/02/05 09:02:50;;;;;;;0.30;0.30;;;9.80;99.90;;;;;;4950152;29;20212;-80
2024/02/05 09:05:17;;;;;;;0.30;0.30;;;9.70;99.90;;;;;;4956125;28;20218;-77
2024/02/05 09:07:50;;;;;;;0.30;0.30;;;9.70;99.90;;;;;;4953813;29;20210;-81
2024/02/05 09:10:19;;;;;;;0.40;0.40;;;9.80;99.90;;;;;;4948773;28;20238;-80
2024/02/05 09:12:46;;;;;;;0.40;0.40;;;9.80;99.90;;;;;;4955033;28;20233;-81
2024/02/05 09:15:14;;;;;;;0.40;0.40;;;9.90;99.90;;;;;;4945599;28;20541;-84
2024/02/05 09:17:41;;;;;;;0.35;0.35;;;9.80;99.90;;;;;;4949613;28;20207;-76
2024/02/05 09:20:08;;;;;;;0.30;0.30;;;9.90;99.90;;;;;;4947073;28;20215;-77
2024/02/05 09:22:36;;;;;;;0.40;0.40;;;9.90;99.90;;;;;;4949606;28;20207;-77
2024/02/05 09:25:03;;;;;;;0.60;0.60;;;10.00;99.90;;;;;;4959799;28;20238;-80
2024/02/05 09:27:30;;;;;;;0.32;0.32;;;10.00;99.90;;;;;;4960196;28;20230;-81
2024/02/05 09:29:57;;;;;;;0.50;0.50;;;10.00;99.90;;;;;;4949527;28;20292;-80
2024/02/05 09:32:24;;;;;;;0.40;0.40;;;10.00;99.90;;;;;;4957237;29;20534;-81
2024/02/05 09:34:51;;;;;;;0.40;0.40;;;10.00;99.90;;;;;;4956489;28;20216;-80
2024/02/05 09:37:18;;;;;;;0.40;0.40;;;10.00;99.90;;;;;;4937965;29;20243;-84
2024/02/05 09:39:45;;;;;;;1.35;1.35;;;10.00;99.90;;;;;;4949744;28;20247;-80
2024/02/05 09:42:12;;;;;;;0.40;0.40;;;10.00;99.90;;;;;;4945573;28;20215;-78
2024/02/05 09:44:40;;;;;;;0.50;0.50;;;10.00;99.90;;;;;;4957751;28;20227;-78
2024/02/05 09:47:10;;;;;;;0.40;0.40;;;10.00;99.90;;;;;;4950524;28;20280;-77
2024/02/05 09:49:37;;;;;;;0.50;0.50;;;10.00;99.90;;;;;;4953257;28;20470;-78
2024/02/05 09:52:07;;;;;;;0.40;0.40;;;9.90;99.90;;;;;;4961600;29;20203;-76
2024/02/05 09:54:40;;;;;;;2.38;1.05;;;10.00;99.90;;;;;;4951426;28;20278;-80
2024/02/05 09:57:10;;;;;;;0.52;0.52;;;10.00;99.90;;;;;;4961633;28;20282;-78
2024/02/05 09:59:41;;;;;;;0.40;0.40;;;10.10;99.90;;;;;;4961530;29;20246;-79
2024/02/05 10:02:10;;;;;;;0.40;0.40;;;10.10;99.90;;;;;;4962416;29;20218;-80
2024/02/05 10:04:45;;;;;;;0.50;0.50;;;10.30;99.90;;;;;;4963903;28;20270;-78
2024/02/05 10:07:18;;;;;;;0.40;0.40;;;10.20;99.90;;;;;;4960544;28;20239;-80
2024/02/05 10:09:47;;;;;;;0.50;0.50;;;10.40;99.90;;;;;;4947166;28;20306;-81
2024/02/05 10:12:16;;;;;;;0.35;0.35;;;10.40;99.90;;;;;;4960575;29;20211;-82
2024/02/05 10:14:43;;;;;;;0.40;0.40;;;10.50;99.90;;;;;;4952163;28;20207;-78
2024/02/05 10:17:10;;;;;;;0.30;0.30;;;10.60;99.90;;;;;;4950586;29;20223;-79
2024/02/05 10:19:38;;;;;;;0.40;0.40;;;10.60;99.90;;;;;;4942955;29;20519;-78
2024/02/05 10:22:06;;;;;;;0.40;0.40;;;10.60;99.90;;;;;;4948397;29;20557;-79
2024/02/05 10:24:38;;;;;;;0.40;0.40;;;10.60;99.90;;;;;;4951684;29;20466;-78
2024/02/05 10:27:04;;;;;;;0.70;0.70;;;10.60;99.90;;;;;;4953818;29;20246;-77
2024/02/05 10:29:31;;;;;;;0.40;0.40;;;10.60;99.90;;;;;;4932009;29;20224;-81
2024/02/05 10:31:59;;;;;;;0.85;0.85;;;10.70;99.90;;;;;;4955848;28;20248;-78
2024/02/05 10:34:26;;;;;;;0.50;0.50;;;10.60;99.90;;;;;;4947734;29;20209;-78
2024/02/05 10:37:04;;;;;;;0.40;0.40;;;10.60;99.90;;;;;;4953117;29;20243;-81
2024/02/05 10:39:31;;;;;;;0.50;0.50;;;10.60;99.90;;;;;;4946465;29;20207;-79
2024/02/05 10:41:58;;;;;;;0.50;0.50;;;10.70;99.90;;;;;;4954006;29;20200;-80
2024/02/05 10:44:26;;;;;;;0.40;0.40;;;10.70;99.90;;;;;;4958845;29;20392;-79
2024/02/05 10:47:07;;;;;;;0.43;0.43;;;10.70;99.90;;;;;;4959397;29;20207;-81
2024/02/05 10:49:34;;;;;;;1.20;1.13;;;10.70;99.90;;;;;;4954359;29;20271;-77
2024/02/05 10:52:05;;;;;;;0.50;0.50;;;10.60;99.90;;;;;;4953237;29;20230;-80
2024/02/05 10:54:38;;;;;;;0.40;0.40;;;10.70;99.90;;;;;;4960540;29;20216;-78
2024/02/05 10:57:08;;;;;;;0.50;0.50;;;10.70;99.90;;;;;;4935244;29;20450;-78
2024/02/05 10:59:35;;;;;;;0.40;0.40;;;10.70;99.90;;;;;;4962181;29;20274;-79
2024/02/05 11:02:12;;;;;;;0.40;0.40;;;10.70;99.90;;;;;;4949137;29;20206;-78
2024/02/05 11:04:39;;;;;;;0.40;0.40;;;10.80;99.90;;;;;;4959300;29;20220;-80
2024/02/05 11:07:09;;;;;;;0.60;0.60;;;10.70;99.90;;;;;;4955214;29;20207;-79
2024/02/05 11:09:38;;;;;;;0.70;0.70;;;10.70;99.90;;;;;;4957220;29;20212;-80
2024/02/05 11:12:08;;;;;;;0.40;0.40;;;10.60;99.90;;;;;;4959833;29;20270;-80
2024/02/05 11:14:36;;;;;;;0.60;0.60;;;10.70;99.90;;;;;;4950164;29;20254;-80
2024/02/05 11:17:04;;;;;;;0.40;0.40;;;10.70;99.90;;;;;;4967107;28;20207;-79
2024/02/05 11:19:32;;;;;;;0.85;0.85;;;10.80;99.90;;;;;;4951713;28;20468;-80
2024/02/05 11:22:02;;;;;;;0.50;0.50;;;10.70;99.90;;;;;;4963220;28;20212;-81
2024/02/05 11:24:32;;;;;;;0.50;0.50;;;10.80;99.90;;;;;;4963400;28;20411;-80
2024/02/05 11:27:03;;;;;;;0.52;0.47;;;10.80;99.90;;;;;;4963308;28;20563;-81
2024/02/05 11:29:34;;;;;;;0.60;0.60;;;10.80;99.90;;;;;;4946256;28;20475;-78
2024/02/05 11:32:04;;;;;;;0.50;0.50;;;10.80;99.90;;;;;;4957439;29;20207;-79
2024/02/05 11:34:33;;;;;;;0.47;0.47;;;10.80;99.90;;;;;;4960577;28;20239;-80
2024/02/05 11:37:14;;;;;;;0.50;0.50;;;10.80;99.90;;;;;;4939119;29;20213;-80
2024/02/05 11:39:45;;;;;;;0.77;0.77;;;10.80;99.90;;;;;;4965011;28;20207;-80
2024/02/05 11:42:16;;;;;;;0.50;0.50;;;10.70;99.90;;;;;;4962574;28;20279;-80
2024/02/05 11:44:43;;;;;;;0.50;0.50;;;10.80;99.90;;;;;;4943641;29;20215;-78
2024/02/05 11:47:13;;;;;;;0.50;0.50;;;10.70;99.90;;;;;;4955283;29;20231;-82
2024/02/05 11:49:40;;;;;;;0.50;0.50;;;10.70;99.90;;;;;;4956947;28;20233;-81
2024/02/05 11:52:08;;;;;;;0.50;0.50;;;10.70;99.90;;;;;;4964717;28;20301;-78
2024/02/05 11:54:35;;;;;;;0.40;0.40;;;10.70;99.90;;;;;;4939094;29;20235;-80
2024/02/05 11:57:02;;;;;;;0.50;0.50;;;10.70;99.90;;;;;;4959628;28;20191;-82
2024/02/05 11:59:29;;;;;;;0.60;0.60;;;10.70;99.90;;;;;;4958659;28;20400;-78
2024/02/05 12:01:57;;;;;;;0.40;0.40;;;10.60;99.90;;;;;;4949477;28;20211;-81
2024/02/05 12:04:24;;;;;;;0.40;0.40;;;10.70;99.90;;;;;;4961523;28;20206;-80
2024/02/05 12:06:52;;;;;;;0.40;0.40;;;10.70;99.90;;;;;;4959845;28;20234;-81
2024/02/05 12:09:19;;;;;;;4.30;1.77;;;10.60;99.90;;;;;;4944477;28;20211;-81
2024/02/05 12:11:48;;;;;;;0.50;0.50;;;10.70;99.90;;;;;;4959951;28;20278;-81
2024/02/05 12:14:15;;;;;;;0.80;0.80;;;10.70;99.90;;;;;;4962480;28;20559;-79
2024/02/05 12:16:42;;;;;;;0.70;0.70;;;10.70;99.90;;;;;;4949716;28;20223;-79
2024/02/05 12:19:22;;;;;;;0.50;0.50;;;10.80;99.90;;;;;;4949470;28;20223;-80
2024/02/05 12:21:50;;;;;;;0.70;0.70;;;10.80;99.90;;;;;;4953339;28;20439;-80
2024/02/05 12:24:17;;;;;;;0.60;0.60;;;10.80;99.90;;;;;;4956570;29;20217;-80
2024/02/05 12:26:44;;;;;;;0.82;0.82;;;10.90;99.90;;;;;;4954798;28;20271;-82
2024/02/05 12:29:22;;;;;;;0.70;0.70;;;10.90;99.90;;;;;;4940160;29;20231;-80
2024/02/05 12:31:51;;;;;;;0.70;0.70;;;10.90;99.90;;;;;;4963076;29;20199;-78
2024/02/05 12:34:19;;;;;;;0.50;0.50;;;11.00;99.90;;;;;;4952323;29;20307;-81
2024/02/05 12:36:47;;;;;;;0.60;0.60;;;10.90;99.90;;;;;;4964855;28;20211;-82
2024/02/05 12:39:14;;;;;;;0.93;0.93;;;10.90;99.90;;;;;;4959139;29;20212;-80
2024/02/05 12:41:43;;;;;;;0.50;0.50;;;10.90;99.90;;;;;;4942963;29;20538;-79
2024/02/05 12:44:10;;;;;;;0.50;0.50;;;10.90;99.90;;;;;;4963597;29;20200;-80
2024/02/05 12:46:49;;;;;;;0.60;0.60;;;11.00;99.90;;;;;;4978268;28;20487;-80
2024/02/05 12:49:18;;;;;;;0.65;0.65;;;11.00;99.90;;;;;;4961222;28;20536;-81
2024/02/05 12:51:47;;;;;;;0.88;0.88;;;10.90;99.90;;;;;;4938217;28;20229;-81
2024/02/05 12:54:16;;;;;;;1.10;1.02;;;11.00;99.90;;;;;;4926793;29;20288;-82
2024/02/05 12:56:43;;;;;;;1.02;1.02;;;11.10;99.90;;;;;;4963219;28;20399;-79